sensor_id;sensor_type;location;lat;lon;timestamp;pressure;altitude;pressure_sealevel;temperature;humidity
2178;BME280;1095;50.992;6.798;2022-12-24T00:01:49;100044.13;;;9.86;95.52
2178;BME280;1095;50.992;6.798;2022-12-24T00:04:16;100055.06;;;9.89;95.57
2178;BME280;1095;50.992;6.798;2022-12-24T00:06:45;100049.34;;;9.78;96.05
2178;BME280;1095;50.992;6.798;2022-12-24T00:09:12;100042.00;;;9.65;96.50
2178;BME280;1095;50.992;6.798;2022-12-24T00:11:42;100048.69;;;9.76;96.81
2178;BME280;1095;50.992;6.798;2022-12-24T00:14:11;100061.13;;;9.82;96.35
2178;BME280;1095;50.992;6.798;2022-12-24T00:16:38;100045.75;;;9.62;96.52
2178;BME280;1095;50.992;6.798;2022-12-24T00:19:06;100065.03;;;9.70;97.03
2178;BME280;1095;50.992;6.798;2022-12-24T00:21:32;100076.09;;;9.96;96.27
2178;BME280;1095;50.992;6.798;2022-12-24T00:24:00;100069.13;;;9.88;95.88
2178;BME280;1095;50.992;6.798;2022-12-24T00:26:28;100065.84;;;9.86;96.28
2178;BME280;1095;50.992;6.798;2022-12-24T00:28:55;100067.97;;;9.83;96.27
2178;BME280;1095;50.992;6.798;2022-12-24T00:31:22;100072.53;;;9.89;96.39
2178;BME280;1095;50.992;6.798;2022-12-24T00:33:48;100067.47;;;9.87;97.00
2178;BME280;1095;50.992;6.798;2022-12-24T00:36:17;100072.16;;;10.08;96.36
2178;BME280;1095;50.992;6.798;2022-12-24T00:38:45;100055.34;;;10.11;96.59
2178;BME280;1095;50.992;6.798;2022-12-24T00:41:13;100061.88;;;10.07;97.25
2178;BME280;1095;50.992;6.798;2022-12-24T00:43:50;100073.16;;;10.07;97.24
2178;BME280;1095;50.992;6.798;2022-12-24T00:46:17;100074.78;;;10.08;97.61
2178;BME280;1095;50.992;6.798;2022-12-24T00:48:43;100072.16;;;10.08;98.14
2178;BME280;1095;50.992;6.798;2022-12-24T00:51:10;100081.16;;;10.14;98.02
2178;BME280;1095;50.992;6.798;2022-12-24T00:53:38;100084.09;;;10.11;98.26
2178;BME280;1095;50.992;6.798;2022-12-24T00:56:06;100084.25;;;10.17;98.22
2178;BME280;1095;50.992;6.798;2022-12-24T00:58:33;100083.13;;;10.20;98.17
2178;BME280;1095;50.992;6.798;2022-12-24T01:01:00;100082.63;;;10.16;98.08
2178;BME280;1095;50.992;6.798;2022-12-24T01:03:26;100095.38;;;10.19;98.04
2178;BME280;1095;50.992;6.798;2022-12-24T01:05:59;100086.69;;;10.19;97.99
2178;BME280;1095;50.992;6.798;2022-12-24T01:08:25;100097.66;;;10.22;97.91
2178;BME280;1095;50.992;6.798;2022-12-24T01:10:53;100104.53;;;10.23;97.88
2178;BME280;1095;50.992;6.798;2022-12-24T01:13:20;100090.81;;;10.21;97.79
2178;BME280;1095;50.992;6.798;2022-12-24T01:15:46;100109.59;;;10.33;97.25
2178;BME280;1095;50.992;6.798;2022-12-24T01:18:13;100113.34;;;10.30;97.00
2178;BME280;1095;50.992;6.798;2022-12-24T01:20:40;100128.06;;;10.32;97.01
2178;BME280;1095;50.992;6.798;2022-12-24T01:23:06;100139.81;;;10.36;96.90
2178;BME280;1095;50.992;6.798;2022-12-24T01:25:33;100124.28;;;10.34;96.42
2178;BME280;1095;50.992;6.798;2022-12-24T01:28:01;100129.66;;;10.41;95.65
2178;BME280;1095;50.992;6.798;2022-12-24T01:30:28;100139.94;;;10.42;95.79
2178;BME280;1095;50.992;6.798;2022-12-24T01:32:54;100134.88;;;10.41;95.33
2178;BME280;1095;50.992;6.798;2022-12-24T01:35:21;100136.69;;;10.40;95.43
2178;BME280;1095;50.992;6.798;2022-12-24T01:37:47;100152.56;;;10.39;94.68
2178;BME280;1095;50.992;6.798;2022-12-24T01:40:15;100157.47;;;10.25;95.33
2178;BME280;1095;50.992;6.798;2022-12-24T01:43:01;100148.63;;;10.18;95.49
2178;BME280;1095;50.992;6.798;2022-12-24T01:45:47;100146.50;;;10.06;95.95
2178;BME280;1095;50.992;6.798;2022-12-24T01:48:33;100152.22;;;10.01;96.42
2178;BME280;1095;50.992;6.798;2022-12-24T01:51:04;100160.22;;;9.99;96.57
2178;BME280;1095;50.992;6.798;2022-12-24T01:53:33;100166.28;;;10.00;96.33
2178;BME280;1095;50.992;6.798;2022-12-24T01:56:01;100160.56;;;9.96;96.29
2178;BME280;1095;50.992;6.798;2022-12-24T01:58:31;100155.34;;;9.88;96.81
2178;BME280;1095;50.992;6.798;2022-12-24T02:00:58;100173.13;;;10.01;96.59
2178;BME280;1095;50.992;6.798;2022-12-24T02:03:25;100170.88;;;9.90;96.51
2178;BME280;1095;50.992;6.798;2022-12-24T02:05:53;100177.25;;;9.87;97.04
2178;BME280;1095;50.992;6.798;2022-12-24T02:08:22;100169.72;;;9.84;97.30
2178;BME280;1095;50.992;6.798;2022-12-24T02:10:49;100170.53;;;9.77;97.53
2178;BME280;1095;50.992;6.798;2022-12-24T02:13:18;100172.47;;;9.75;97.52
2178;BME280;1095;50.992;6.798;2022-12-24T02:15:57;100186.53;;;9.82;97.46
2178;BME280;1095;50.992;6.798;2022-12-24T02:18:33;100181.63;;;9.71;97.85
2178;BME280;1095;50.992;6.798;2022-12-24T02:24:20;100199.59;;;9.74;97.89
2178;BME280;1095;50.992;6.798;2022-12-24T02:30:00;100201.03;;;9.60;98.43
2178;BME280;1095;50.992;6.798;2022-12-24T02:32:33;100205.78;;;9.73;98.59
2178;BME280;1095;50.992;6.798;2022-12-24T02:35:05;100210.34;;;9.71;98.45
2178;BME280;1095;50.992;6.798;2022-12-24T02:37:37;100207.75;;;9.71;98.56
2178;BME280;1095;50.992;6.798;2022-12-24T02:40:08;100215.78;;;9.85;98.61
2178;BME280;1095;50.992;6.798;2022-12-24T02:42:39;100215.31;;;9.90;98.57
2178;BME280;1095;50.992;6.798;2022-12-24T02:45:10;100216.41;;;9.95;98.23
2178;BME280;1095;50.992;6.798;2022-12-24T02:47:38;100226.41;;;10.00;98.67
2178;BME280;1095;50.992;6.798;2022-12-24T02:50:09;100221.81;;;10.02;98.38
2178;BME280;1095;50.992;6.798;2022-12-24T02:52:38;100214.31;;;10.07;98.17
2178;BME280;1095;50.992;6.798;2022-12-24T02:55:08;100226.56;;;10.07;98.43
2178;BME280;1095;50.992;6.798;2022-12-24T02:57:54;100225.44;;;10.17;98.25
2178;BME280;1095;50.992;6.798;2022-12-24T03:00:26;100227.56;;;10.14;98.47
2178;BME280;1095;50.992;6.798;2022-12-24T03:03:09;100215.13;;;10.08;98.04
2178;BME280;1095;50.992;6.798;2022-12-24T03:05:42;100214.47;;;10.14;98.45
2178;BME280;1095;50.992;6.798;2022-12-24T03:08:14;100227.41;;;10.15;98.49
2178;BME280;1095;50.992;6.798;2022-12-24T03:10:47;100212.34;;;10.09;98.20
2178;BME280;1095;50.992;6.798;2022-12-24T03:13:17;100217.41;;;10.11;98.57
2178;BME280;1095;50.992;6.798;2022-12-24T03:15:47;100229.03;;;10.08;98.73
2178;BME280;1095;50.992;6.798;2022-12-24T03:18:18;100229.69;;;10.10;98.99
2178;BME280;1095;50.992;6.798;2022-12-24T03:20:49;100221.50;;;10.05;99.20
2178;BME280;1095;50.992;6.798;2022-12-24T03:23:17;100225.75;;;10.06;99.54
2178;BME280;1095;50.992;6.798;2022-12-24T03:25:44;100231.47;;;10.02;100.00
2178;BME280;1095;50.992;6.798;2022-12-24T03:28:13;100228.84;;;10.02;100.00
2178;BME280;1095;50.992;6.798;2022-12-24T03:30:43;100243.88;;;9.91;100.00
2178;BME280;1095;50.992;6.798;2022-12-24T03:33:13;100243.56;;;9.86;100.00
2178;BME280;1095;50.992;6.798;2022-12-24T03:35:40;100246.31;;;9.77;100.00
2178;BME280;1095;50.992;6.798;2022-12-24T03:38:06;100237.66;;;9.76;100.00
2178;BME280;1095;50.992;6.798;2022-12-24T03:40:33;100255.44;;;9.73;100.00
2178;BME280;1095;50.992;6.798;2022-12-24T03:42:59;100246.28;;;9.69;100.00
2178;BME280;1095;50.992;6.798;2022-12-24T03:45:26;100249.88;;;9.68;100.00
2178;BME280;1095;50.992;6.798;2022-12-24T03:47:53;100244.31;;;9.62;100.00
2178;BME280;1095;50.992;6.798;2022-12-24T03:50:22;100254.91;;;9.61;100.00
2178;BME280;1095;50.992;6.798;2022-12-24T03:52:48;100243.44;;;9.54;100.00
2178;BME280;1095;50.992;6.798;2022-12-24T03:55:15;100233.81;;;9.54;100.00
2178;BME280;1095;50.992;6.798;2022-12-24T03:57:41;100240.66;;;9.47;100.00
2178;BME280;1095;50.992;6.798;2022-12-24T04:00:09;100247.50;;;9.40;100.00
2178;BME280;1095;50.992;6.798;2022-12-24T04:02:36;100259.09;;;9.38;100.00
2178;BME280;1095;50.992;6.798;2022-12-24T04:05:03;100260.22;;;9.35;100.00
2178;BME280;1095;50.992;6.798;2022-12-24T04:07:32;100261.84;;;9.36;100.00
2178;BME280;1095;50.992;6.798;2022-12-24T04:09:59;100260.53;;;9.32;100.00
2178;BME280;1095;50.992;6.798;2022-12-24T04:12:25;100270.34;;;9.38;100.00
2178;BME280;1095;50.992;6.798;2022-12-24T04:14:52;100266.75;;;9.39;100.00
2178;BME280;1095;50.992;6.798;2022-12-24T04:17:18;100249.16;;;9.41;100.00
2178;BME280;1095;50.992;6.798;2022-12-24T04:19:45;100263.53;;;9.53;100.00
2178;BME280;1095;50.992;6.798;2022-12-24T04:22:12;100268.91;;;9.52;100.00
2178;BME280;1095;50.992;6.798;2022-12-24T04:24:40;100263.50;;;9.45;100.00
2178;BME280;1095;50.992;6.798;2022-12-24T04:27:06;100271.34;;;9.45;100.00
2178;BME280;1095;50.992;6.798;2022-12-24T04:29:33;100273.47;;;9.50;100.00
2178;BME280;1095;50.992;6.798;2022-12-24T04:31:59;100279.03;;;9.55;100.00
2178;BME280;1095;50.992;6.798;2022-12-24T04:34:26;100275.56;;;9.46;100.00
2178;BME280;1095;50.992;6.798;2022-12-24T04:36:53;100282.94;;;9.43;100.00
2178;BME280;1095;50.992;6.798;2022-12-24T04:39:20;100285.41;;;9.44;100.00
2178;BME280;1095;50.992;6.798;2022-12-24T04:41:48;100302.50;;;9.47;100.00
2178;BME280;1095;50.992;6.798;2022-12-24T04:44:14;100309.06;;;9.43;100.00
2178;BME280;1095;50.992;6.798;2022-12-24T04:46:41;100295.28;;;9.32;100.00
2178;BME280;1095;50.992;6.798;2022-12-24T04:49:08;100294.13;;;9.27;100.00
2178;BME280;1095;50.992;6.798;2022-12-24T04:51:34;100307.94;;;9.19;100.00
2178;BME280;1095;50.992;6.798;2022-12-24T04:54:01;100305.63;;;9.16;100.00
2178;BME280;1095;50.992;6.798;2022-12-24T04:56:30;100307.94;;;9.19;100.00
2178;BME280;1095;50.992;6.798;2022-12-24T04:58:59;100303.75;;;9.26;100.00
2178;BME280;1095;50.992;6.798;2022-12-24T05:01:28;100301.94;;;9.27;100.00
2178;BME280;1095;50.992;6.798;2022-12-24T05:03:55;100304.56;;;9.27;100.00
2178;BME280;1095;50.992;6.798;2022-12-24T05:06:23;100308.66;;;9.29;100.00
2178;BME280;1095;50.992;6.798;2022-12-24T05:08:52;100307.72;;;9.39;100.00
2178;BME280;1095;50.992;6.798;2022-12-24T05:11:19;100321.59;;;9.39;100.00
2178;BME280;1095;50.992;6.798;2022-12-24T05:13:46;100314.59;;;9.40;100.00
2178;BME280;1095;50.992;6.798;2022-12-24T05:16:15;100325.03;;;9.40;100.00
2178;BME280;1095;50.992;6.798;2022-12-24T05:18:42;100323.41;;;9.39;100.00
2178;BME280;1095;50.992;6.798;2022-12-24T05:21:09;100321.88;;;9.28;100.00
2178;BME280;1095;50.992;6.798;2022-12-24T05:23:37;100324.78;;;9.25;100.00
2178;BME280;1095;50.992;6.798;2022-12-24T05:26:26;100312.03;;;9.22;100.00
2178;BME280;1095;50.992;6.798;2022-12-24T05:28:56;100322.78;;;9.19;100.00
2178;BME280;1095;50.992;6.798;2022-12-24T05:31:26;100325.84;;;9.14;100.00
2178;BME280;1095;50.992;6.798;2022-12-24T05:33:53;100335.03;;;9.18;100.00
2178;BME280;1095;50.992;6.798;2022-12-24T05:36:20;100333.03;;;9.12;100.00
2178;BME280;1095;50.992;6.798;2022-12-24T05:38:47;100326.16;;;9.11;100.00
2178;BME280;1095;50.992;6.798;2022-12-24T05:41:14;100326.81;;;9.13;100.00
2178;BME280;1095;50.992;6.798;2022-12-24T05:43:40;100326.97;;;9.12;100.00
2178;BME280;1095;50.992;6.798;2022-12-24T05:46:14;100335.19;;;9.17;100.00
2178;BME280;1095;50.992;6.798;2022-12-24T05:49:09;100347.75;;;9.21;100.00
2178;BME280;1095;50.992;6.798;2022-12-24T05:51:39;100343.72;;;9.27;100.00
2178;BME280;1095;50.992;6.798;2022-12-24T05:54:05;100334.25;;;9.26;100.00
2178;BME280;1095;50.992;6.798;2022-12-24T05:56:32;100344.09;;;9.32;100.00
2178;BME280;1095;50.992;6.798;2022-12-24T05:58:59;100343.41;;;9.30;100.00
2178;BME280;1095;50.992;6.798;2022-12-24T06:01:26;100344.38;;;9.29;100.00
2178;BME280;1095;50.992;6.798;2022-12-24T06:03:52;100340.13;;;9.28;100.00
2178;BME280;1095;50.992;6.798;2022-12-24T06:06:22;100347.50;;;9.32;100.00
2178;BME280;1095;50.992;6.798;2022-12-24T06:08:50;100367.88;;;9.29;100.00
2178;BME280;1095;50.992;6.798;2022-12-24T06:11:18;100357.97;;;9.32;100.00
2178;BME280;1095;50.992;6.798;2022-12-24T06:13:45;100352.88;;;9.31;100.00
2178;BME280;1095;50.992;6.798;2022-12-24T06:16:14;100347.00;;;9.29;100.00
2178;BME280;1095;50.992;6.798;2022-12-24T06:18:41;100364.88;;;9.42;100.00
2178;BME280;1095;50.992;6.798;2022-12-24T06:21:08;100370.75;;;9.44;100.00
2178;BME280;1095;50.992;6.798;2022-12-24T06:23:43;100366.66;;;9.41;100.00
2178;BME280;1095;50.992;6.798;2022-12-24T06:26:15;100368.56;;;9.31;100.00
2178;BME280;1095;50.992;6.798;2022-12-24T06:28:46;100365.28;;;9.29;100.00
2178;BME280;1095;50.992;6.798;2022-12-24T06:31:14;100367.53;;;9.24;100.00
2178;BME280;1095;50.992;6.798;2022-12-24T06:33:42;100373.72;;;9.23;100.00
2178;BME280;1095;50.992;6.798;2022-12-24T06:36:13;100377.16;;;9.23;100.00
2178;BME280;1095;50.992;6.798;2022-12-24T06:38:41;100371.25;;;9.21;100.00
2178;BME280;1095;50.992;6.798;2022-12-24T06:41:08;100380.22;;;9.19;100.00
2178;BME280;1095;50.992;6.798;2022-12-24T06:43:35;100382.38;;;9.23;100.00
2178;BME280;1095;50.992;6.798;2022-12-24T06:46:04;100385.03;;;9.31;100.00
2178;BME280;1095;50.992;6.798;2022-12-24T06:48:30;100376.38;;;9.31;100.00
2178;BME280;1095;50.992;6.798;2022-12-24T06:50:57;100383.72;;;9.27;100.00
2178;BME280;1095;50.992;6.798;2022-12-24T06:53:23;100380.59;;;9.24;100.00
2178;BME280;1095;50.992;6.798;2022-12-24T06:55:51;100392.72;;;9.33;100.00
2178;BME280;1095;50.992;6.798;2022-12-24T06:58:18;100398.75;;;9.34;100.00
2178;BME280;1095;50.992;6.798;2022-12-24T07:00:46;100409.56;;;9.39;100.00
2178;BME280;1095;50.992;6.798;2022-12-24T07:03:13;100405.00;;;9.41;100.00
2178;BME280;1095;50.992;6.798;2022-12-24T07:05:40;100392.41;;;9.36;100.00
2178;BME280;1095;50.992;6.798;2022-12-24T07:08:07;100399.28;;;9.37;100.00
2178;BME280;1095;50.992;6.798;2022-12-24T07:10:34;100412.88;;;9.49;100.00
2178;BME280;1095;50.992;6.798;2022-12-24T07:13:02;100398.38;;;9.54;100.00
2178;BME280;1095;50.992;6.798;2022-12-24T07:15:29;100418.47;;;9.54;100.00
2178;BME280;1095;50.992;6.798;2022-12-24T07:17:55;100422.19;;;9.51;100.00
2178;BME280;1095;50.992;6.798;2022-12-24T07:20:22;100416.97;;;9.51;100.00
2178;BME280;1095;50.992;6.798;2022-12-24T07:22:48;100421.88;;;9.54;100.00
2178;BME280;1095;50.992;6.798;2022-12-24T07:25:16;100422.56;;;9.56;100.00
2178;BME280;1095;50.992;6.798;2022-12-24T07:27:43;100422.84;;;9.53;100.00
2178;BME280;1095;50.992;6.798;2022-12-24T07:30:11;100435.56;;;9.48;100.00
2178;BME280;1095;50.992;6.798;2022-12-24T07:32:38;100435.22;;;9.43;100.00
2178;BME280;1095;50.992;6.798;2022-12-24T07:35:05;100446.66;;;9.42;100.00
2178;BME280;1095;50.992;6.798;2022-12-24T07:37:32;100447.09;;;9.38;100.00
2178;BME280;1095;50.992;6.798;2022-12-24T07:39:58;100451.50;;;9.37;100.00
2178;BME280;1095;50.992;6.798;2022-12-24T07:42:28;100454.25;;;9.36;100.00
2178;BME280;1095;50.992;6.798;2022-12-24T07:44:54;100457.34;;;9.31;100.00
2178;BME280;1095;50.992;6.798;2022-12-24T07:47:23;100460.25;;;9.28;100.00
2178;BME280;1095;50.992;6.798;2022-12-24T07:49:49;100462.19;;;9.26;100.00
2178;BME280;1095;50.992;6.798;2022-12-24T07:52:16;100463.69;;;9.28;100.00
2178;BME280;1095;50.992;6.798;2022-12-24T07:54:45;100460.25;;;9.28;100.00
2178;BME280;1095;50.992;6.798;2022-12-24T07:57:12;100461.06;;;9.28;100.00
2178;BME280;1095;50.992;6.798;2022-12-24T07:59:39;100463.59;;;9.20;100.00
2178;BME280;1095;50.992;6.798;2022-12-24T08:02:08;100474.50;;;9.16;100.00
2178;BME280;1095;50.992;6.798;2022-12-24T08:04:39;100459.13;;;9.13;100.00
2178;BME280;1095;50.992;6.798;2022-12-24T08:07:09;100474.28;;;9.27;100.00
2178;BME280;1095;50.992;6.798;2022-12-24T08:09:39;100481.81;;;9.30;100.00
2178;BME280;1095;50.992;6.798;2022-12-24T08:12:10;100494.13;;;9.46;100.00
2178;BME280;1095;50.992;6.798;2022-12-24T08:14:38;100492.69;;;9.43;100.00
2178;BME280;1095;50.992;6.798;2022-12-24T08:17:08;100497.28;;;9.49;100.00
2178;BME280;1095;50.992;6.798;2022-12-24T08:19:37;100500.09;;;9.56;100.00
2178;BME280;1095;50.992;6.798;2022-12-24T08:22:08;100494.56;;;9.59;100.00
2178;BME280;1095;50.992;6.798;2022-12-24T08:28:19;100508.75;;;9.56;100.00
2178;BME280;1095;50.992;6.798;2022-12-24T08:34:16;100487.56;;;9.59;100.00
2178;BME280;1095;50.992;6.798;2022-12-24T08:36:56;100510.53;;;9.74;100.00
2178;BME280;1095;50.992;6.798;2022-12-24T08:39:27;100510.22;;;9.77;100.00
2178;BME280;1095;50.992;6.798;2022-12-24T08:42:00;100500.22;;;9.72;100.00
2178;BME280;1095;50.992;6.798;2022-12-24T08:44:37;100514.16;;;9.81;100.00
2178;BME280;1095;50.992;6.798;2022-12-24T08:47:04;100510.06;;;9.78;100.00
2178;BME280;1095;50.992;6.798;2022-12-24T08:49:31;100516.94;;;9.79;100.00
2178;BME280;1095;50.992;6.798;2022-12-24T08:51:59;100515.91;;;9.72;100.00
2178;BME280;1095;50.992;6.798;2022-12-24T08:54:31;100504.69;;;9.80;100.00
2178;BME280;1095;50.992;6.798;2022-12-24T08:57:07;100518.94;;;9.85;100.00
2178;BME280;1095;50.992;6.798;2022-12-24T08:59:45;100522.16;;;9.79;100.00
2178;BME280;1095;50.992;6.798;2022-12-24T09:16:29;100551.56;;;9.81;100.00
2178;BME280;1095;50.992;6.798;2022-12-24T09:19:29;100547.69;;;9.85;100.00
2178;BME280;1095;50.992;6.798;2022-12-24T09:22:26;100550.31;;;9.68;100.00
2178;BME280;1095;50.992;6.798;2022-12-24T09:28:56;100565.47;;;9.82;100.00
2178;BME280;1095;50.992;6.798;2022-12-24T09:32:15;100572.38;;;9.91;100.00
2178;BME280;1095;50.992;6.798;2022-12-24T09:42:11;100579.56;;;9.71;100.00
2178;BME280;1095;50.992;6.798;2022-12-24T09:51:50;100610.66;;;10.00;100.00
2178;BME280;1095;50.992;6.798;2022-12-24T09:54:19;100616.25;;;10.05;100.00
2178;BME280;1095;50.992;6.798;2022-12-24T09:56:47;100606.59;;;10.06;100.00
2178;BME280;1095;50.992;6.798;2022-12-24T09:59:16;100614.22;;;10.17;100.00
2178;BME280;1095;50.992;6.798;2022-12-24T10:01:43;100619.53;;;10.25;100.00
2178;BME280;1095;50.992;6.798;2022-12-24T10:04:11;100615.47;;;10.30;100.00
2178;BME280;1095;50.992;6.798;2022-12-24T10:06:45;100627.38;;;10.25;100.00
2178;BME280;1095;50.992;6.798;2022-12-24T10:09:21;100621.91;;;10.18;100.00
2178;BME280;1095;50.992;6.798;2022-12-24T10:11:57;100631.78;;;10.24;100.00
2178;BME280;1095;50.992;6.798;2022-12-24T10:14:39;100632.59;;;10.25;100.00
2178;BME280;1095;50.992;6.798;2022-12-24T10:17:19;100627.22;;;10.26;100.00
2178;BME280;1095;50.992;6.798;2022-12-24T10:19:58;100629.69;;;10.28;100.00
2178;BME280;1095;50.992;6.798;2022-12-24T10:22:34;100639.31;;;10.27;100.00
2178;BME280;1095;50.992;6.798;2022-12-24T10:25:18;100631.22;;;10.39;100.00
2178;BME280;1095;50.992;6.798;2022-12-24T10:27:47;100630.88;;;10.42;100.00
2178;BME280;1095;50.992;6.798;2022-12-24T10:30:16;100640.22;;;10.44;100.00
2178;BME280;1095;50.992;6.798;2022-12-24T10:32:44;100643.41;;;10.56;100.00
2178;BME280;1095;50.992;6.798;2022-12-24T10:35:19;100638.81;;;10.58;100.00
2178;BME280;1095;50.992;6.798;2022-12-24T10:37:54;100632.94;;;10.56;100.00
2178;BME280;1095;50.992;6.798;2022-12-24T10:40:31;100630.34;;;10.64;100.00
2178;BME280;1095;50.992;6.798;2022-12-24T10:43:04;100629.38;;;10.65;100.00
2178;BME280;1095;50.992;6.798;2022-12-24T10:45:39;100633.34;;;10.69;100.00
2178;BME280;1095;50.992;6.798;2022-12-24T10:48:13;100632.72;;;10.75;99.97
2178;BME280;1095;50.992;6.798;2022-12-24T10:50:50;100634.34;;;10.76;99.33
2178;BME280;1095;50.992;6.798;2022-12-24T10:53:21;100630.25;;;10.74;99.28
2178;BME280;1095;50.992;6.798;2022-12-24T10:56:00;100638.56;;;10.69;98.77
2178;BME280;1095;50.992;6.798;2022-12-24T10:58:27;100614.66;;;10.64;98.73
2178;BME280;1095;50.992;6.798;2022-12-24T11:00:54;100637.38;;;10.63;98.65
2178;BME280;1095;50.992;6.798;2022-12-24T11:03:23;100628.56;;;10.64;99.00
2178;BME280;1095;50.992;6.798;2022-12-24T11:06:02;100640.00;;;10.63;99.08
2178;BME280;1095;50.992;6.798;2022-12-24T11:08:32;100635.59;;;10.64;98.95
2178;BME280;1095;50.992;6.798;2022-12-24T11:11:02;100636.91;;;10.68;98.09
2178;BME280;1095;50.992;6.798;2022-12-24T11:13:31;100637.63;;;10.78;98.55
2178;BME280;1095;50.992;6.798;2022-12-24T11:16:01;100639.78;;;10.83;97.70
2178;BME280;1095;50.992;6.798;2022-12-24T11:18:30;100637.31;;;10.81;97.56
2178;BME280;1095;50.992;6.798;2022-12-24T11:20:57;100640.75;;;10.90;97.61
2178;BME280;1095;50.992;6.798;2022-12-24T11:23:26;100636.69;;;10.95;97.23
2178;BME280;1095;50.992;6.798;2022-12-24T11:25:54;100629.84;;;11.03;96.53
2178;BME280;1095;50.992;6.798;2022-12-24T11:28:24;100637.41;;;11.14;96.11
2178;BME280;1095;50.992;6.798;2022-12-24T11:30:58;100640.53;;;11.17;95.99
2178;BME280;1095;50.992;6.798;2022-12-24T11:33:25;100645.16;;;11.23;96.00
2178;BME280;1095;50.992;6.798;2022-12-24T11:35:55;100639.13;;;11.31;95.92
2178;BME280;1095;50.992;6.798;2022-12-24T11:38:25;100642.72;;;11.46;95.58
2178;BME280;1095;50.992;6.798;2022-12-24T11:41:01;100635.22;;;11.68;94.93
2178;BME280;1095;50.992;6.798;2022-12-24T11:43:37;100644.09;;;11.75;94.17
2178;BME280;1095;50.992;6.798;2022-12-24T11:46:33;100641.81;;;11.80;93.85
2178;BME280;1095;50.992;6.798;2022-12-24T11:54:47;100634.56;;;11.57;93.77
2178;BME280;1095;50.992;6.798;2022-12-24T11:57:18;100636.34;;;11.49;94.27
2178;BME280;1095;50.992;6.798;2022-12-24T11:59:48;100624.19;;;11.40;94.51
2178;BME280;1095;50.992;6.798;2022-12-24T12:02:19;100630.78;;;11.52;94.62
2178;BME280;1095;50.992;6.798;2022-12-24T12:04:49;100623.56;;;11.29;94.43
2178;BME280;1095;50.992;6.798;2022-12-24T12:07:24;100627.00;;;11.30;95.12
2178;BME280;1095;50.992;6.798;2022-12-24T12:09:57;100627.16;;;11.28;95.06
2178;BME280;1095;50.992;6.798;2022-12-24T12:12:27;100631.91;;;11.33;95.08
2178;BME280;1095;50.992;6.798;2022-12-24T12:15:01;100618.81;;;11.41;94.75
2178;BME280;1095;50.992;6.798;2022-12-24T12:17:39;100639.78;;;11.49;94.78
2178;BME280;1095;50.992;6.798;2022-12-24T12:20:14;100635.84;;;11.45;94.57
2178;BME280;1095;50.992;6.798;2022-12-24T12:22:47;100655.84;;;11.54;94.50
2178;BME280;1095;50.992;6.798;2022-12-24T12:25:20;100662.88;;;11.54;94.31
2178;BME280;1095;50.992;6.798;2022-12-24T12:27:52;100650.09;;;11.51;94.35
2178;BME280;1095;50.992;6.798;2022-12-24T12:30:24;100655.66;;;11.48;93.93
2178;BME280;1095;50.992;6.798;2022-12-24T12:32:56;100658.59;;;11.45;94.27
2178;BME280;1095;50.992;6.798;2022-12-24T12:35:28;100670.41;;;11.49;94.28
2178;BME280;1095;50.992;6.798;2022-12-24T12:37:58;100669.59;;;11.56;94.13
2178;BME280;1095;50.992;6.798;2022-12-24T12:41:01;100657.00;;;11.68;93.75
2178;BME280;1095;50.992;6.798;2022-12-24T12:47:01;100648.34;;;11.76;92.12
2178;BME280;1095;50.992;6.798;2022-12-24T12:49:47;100661.28;;;11.85;91.85
2178;BME280;1095;50.992;6.798;2022-12-24T12:52:38;100672.63;;;11.78;90.48
2178;BME280;1095;50.992;6.798;2022-12-24T12:55:29;100657.72;;;11.78;90.65
2178;BME280;1095;50.992;6.798;2022-12-24T12:57:59;100667.69;;;11.83;90.32
2178;BME280;1095;50.992;6.798;2022-12-24T13:00:33;100665.03;;;11.67;90.00
2178;BME280;1095;50.992;6.798;2022-12-24T13:03:27;100661.25;;;11.61;90.42
2178;BME280;1095;50.992;6.798;2022-12-24T13:06:36;100665.50;;;11.54;90.95
2178;BME280;1095;50.992;6.798;2022-12-24T13:09:34;100652.03;;;11.41;91.31
2178;BME280;1095;50.992;6.798;2022-12-24T13:12:29;100662.72;;;11.55;91.74
2178;BME280;1095;50.992;6.798;2022-12-24T13:18:55;100672.59;;;11.70;90.86
2178;BME280;1095;50.992;6.798;2022-12-24T13:21:28;100668.38;;;11.77;90.29
2178;BME280;1095;50.992;6.798;2022-12-24T13:24:04;100668.66;;;11.74;89.71
2178;BME280;1095;50.992;6.798;2022-12-24T13:26:31;100659.00;;;11.82;89.32
2178;BME280;1095;50.992;6.798;2022-12-24T13:29:28;100670.31;;;11.83;89.03
2178;BME280;1095;50.992;6.798;2022-12-24T13:35:31;100677.03;;;11.77;88.90
2178;BME280;1095;50.992;6.798;2022-12-24T13:38:32;100688.34;;;11.78;88.79
2178;BME280;1095;50.992;6.798;2022-12-24T13:44:19;100674.03;;;11.64;87.52
2178;BME280;1095;50.992;6.798;2022-12-24T13:47:16;100692.22;;;11.66;87.70
2178;BME280;1095;50.992;6.798;2022-12-24T13:49:51;100686.78;;;11.51;87.93
2178;BME280;1095;50.992;6.798;2022-12-24T13:52:28;100695.97;;;11.55;88.43
2178;BME280;1095;50.992;6.798;2022-12-24T13:55:16;100709.25;;;11.61;88.65
2178;BME280;1095;50.992;6.798;2022-12-24T13:57:51;100701.06;;;11.56;88.70
2178;BME280;1095;50.992;6.798;2022-12-24T14:00:40;100686.28;;;11.47;88.00
2178;BME280;1095;50.992;6.798;2022-12-24T14:03:32;100702.13;;;11.38;88.49
2178;BME280;1095;50.992;6.798;2022-12-24T14:06:21;100678.38;;;11.23;88.74
2178;BME280;1095;50.992;6.798;2022-12-24T14:09:08;100699.28;;;11.15;89.26
2178;BME280;1095;50.992;6.798;2022-12-24T14:12:14;100714.31;;;11.05;89.74
2178;BME280;1095;50.992;6.798;2022-12-24T14:14:49;100696.53;;;10.82;90.52
2178;BME280;1095;50.992;6.798;2022-12-24T14:17:21;100687.31;;;10.70;90.49
2178;BME280;1095;50.992;6.798;2022-12-24T14:19:51;100703.41;;;10.83;90.69
2178;BME280;1095;50.992;6.798;2022-12-24T14:22:30;100666.63;;;10.59;90.65
2178;BME280;1095;50.992;6.798;2022-12-24T14:28:22;100678.03;;;10.50;91.84
2178;BME280;1095;50.992;6.798;2022-12-24T14:31:02;100695.66;;;10.48;92.61
2178;BME280;1095;50.992;6.798;2022-12-24T14:36:31;100690.66;;;10.28;93.38
2178;BME280;1095;50.992;6.798;2022-12-24T14:39:02;100698.28;;;10.22;93.76
2178;BME280;1095;50.992;6.798;2022-12-24T14:41:39;100722.84;;;10.29;94.34
2178;BME280;1095;50.992;6.798;2022-12-24T14:44:52;100722.63;;;10.22;94.92
2178;BME280;1095;50.992;6.798;2022-12-24T14:47:51;100709.91;;;10.10;95.44
2178;BME280;1095;50.992;6.798;2022-12-24T14:51:02;100712.31;;;10.03;95.62